WXM80 ListenWXM80 Stop

You find our weather info also at:

UK Metoffice

WeatherCloud

Weather Underground

Northeastern Weather Network

AWEKAS

Citizen Weather Observer Program (CWOP)

HAMweather, WeatherForYou, PWS Weather


Weather Underground History page Text

Daily Summary for February 12, 2018 Units:  Metric    English   Both
« Previous Day
Next Day »
Daily Weekly Monthly Yearly Custom
  High: Low: Average:
Temperature: 14.6 °C -0.1 °C 6.1 °C
Dew Point: 14.4 °C -4.9 °C 3.3 °C
Humidity: 99 % 68 % 83 %
Wind Speed: 14.8 km/h 0 km/h 4.8 km/h
Wind Gust: 22.2 km/h - -
Wind:- - WSW
Pressure: 1030.4 hPa 1003.9 hPa -
Precipitation: 0 mm    
Historical Graphs
 
 
Tabular Data for February 12, 2018
Time Temperature Dew Point Pressure Wind Wind Speed Wind Gust Humidity Rainfall Rate (Hourly)
00:01 13.8 °C 13.4 °C 1003.9 hPa SSE 11.3 km/h 11.3 km/h 98 % 0 mm
00:06 13.7 °C 13.4 °C 1003.9 hPa SSW 10 km/h 16.7 km/h 98 % 0 mm
00:11 13.7 °C 13.4 °C 1003.9 hPa South 9.7 km/h 11.3 km/h 98 % 0 mm
00:16 13.7 °C 13.4 °C 1003.9 hPa South 6.9 km/h 13 km/h 98 % 0 mm
00:22 13.7 °C 13.4 °C 1003.9 hPa SSW 6.3 km/h 12.9 km/h 98 % 0 mm
00:27 13.7 °C 13.3 °C 1003.9 hPa SSW 6.6 km/h 7.4 km/h 98 % 0 mm
00:32 13.7 °C 13.3 °C 1003.9 hPa South 4.7 km/h 9.3 km/h 98 % 0 mm
00:37 13.7 °C 13.3 °C 1003.9 hPa SSW 6.4 km/h 18.5 km/h 98 % 0 mm
00:42 13.7 °C 13.4 °C 1004.3 hPa SSW 7.9 km/h 16.7 km/h 98 % 0 mm
00:47 13.8 °C 13.5 °C 1004.3 hPa SSW 6.1 km/h 9.3 km/h 98 % 0 mm
00:52 13.9 °C 13.6 °C 1003.9 hPa SSW 3.5 km/h 5.6 km/h 98 % 0 mm
00:57 13.9 °C 13.6 °C 1004.3 hPa WSW 8 km/h 14.8 km/h 98 % 0 mm
01:02 14 °C 13.7 °C 1004.3 hPa SW 7.4 km/h 9.7 km/h 98 % 0 mm
01:07 14 °C 13.7 °C 1004.3 hPa SW 5.8 km/h 8 km/h 98 % 0 mm
01:12 14.1 °C 13.9 °C 1004.6 hPa SSW 1.3 km/h 5.6 km/h 99 % 0 mm
01:17 14.1 °C 13.9 °C 1004.6 hPa WSW 4.8 km/h 11.1 km/h 99 % 0 mm
01:22 14.2 °C 14 °C 1005 hPa SW 2.9 km/h 9.7 km/h 99 % 0 mm
01:27 14.2 °C 13.9 °C 1005 hPa West 6.9 km/h 16.7 km/h 98 % 0 mm
01:32 14.3 °C 13.9 °C 1005 hPa WSW 2.4 km/h 11.1 km/h 98 % 0 mm
01:37 14.3 °C 14 °C 1005 hPa South 4.7 km/h 16.7 km/h 98 % 0 mm
01:42 14.4 °C 14.3 °C 1005 hPa SW 6.9 km/h 13 km/h 99 % 0 mm
01:47 14.5 °C 14.3 °C 1005 hPa WSW 4.5 km/h 7.4 km/h 99 % 0 mm
01:53 14.5 °C 14.3 °C 1005 hPa SSW 9.3 km/h 14.8 km/h 99 % 0 mm
01:58 14.6 °C 14.4 °C 1005 hPa WSW 4.8 km/h 7.4 km/h 99 % 0 mm
02:03 14.6 °C 14.4 °C 1005 hPa SSW 7.4 km/h 13 km/h 99 % 0 mm
02:08 14.5 °C 14.3 °C 1005 hPa SW 4.7 km/h 5.6 km/h 99 % 0 mm
02:13 14.5 °C 14.3 °C 1005.3 hPa SSW 6.9 km/h 11.1 km/h 99 % 0 mm
02:18 14.4 °C 14.1 °C 1005.3 hPa SW 8.4 km/h 13 km/h 98 % 0 mm
02:23 14.4 °C 14.1 °C 1005.6 hPa SSW 5.1 km/h 7.4 km/h 98 % 0 mm
02:28 14.4 °C 14.1 °C 1005.6 hPa SSW 7.6 km/h 11.1 km/h 98 % 0 mm
02:33 14.3 °C 14 °C 1005.6 hPa WSW 5.5 km/h 9.7 km/h 98 % 0 mm
02:38 14.3 °C 14 °C 1005.6 hPa SSW 6.9 km/h 11.1 km/h 98 % 0 mm
02:43 14.3 °C 14 °C 1005.6 hPa WSW 5 km/h 9.7 km/h 98 % 0 mm
02:48 14.3 °C 14 °C 1005.6 hPa WSW 5.6 km/h 9.3 km/h 98 % 0 mm
02:53 14.3 °C 14 °C 1006 hPa WSW 2.3 km/h 5.6 km/h 98 % 0 mm
02:58 14.3 °C 14 °C 1006 hPa WSW 4.8 km/h 9.3 km/h 98 % 0 mm
03:03 14.3 °C 14 °C 1006.3 hPa WSW 2.1 km/h 5.6 km/h 98 % 0 mm
03:08 14.3 °C 13.9 °C 1006.3 hPa SSW 6.8 km/h 8 km/h 98 % 0 mm
03:13 14.3 °C 13.9 °C 1006.3 hPa SW 3.1 km/h 8 km/h 98 % 0 mm
03:18 14.3 °C 13.9 °C 1006.3 hPa SSW 6.9 km/h 7.4 km/h 98 % 0 mm
03:23 14.3 °C 13.9 °C 1006.3 hPa SSW 3.2 km/h 9.3 km/h 98 % 0 mm
03:29 14.2 °C 13.9 °C 1006.3 hPa WSW 2.3 km/h 7.4 km/h 98 % 0 mm
03:34 14.2 °C 13.8 °C 1006.3 hPa West 1.4 km/h 9.3 km/h 98 % 0 mm
03:39 14.1 °C 13.8 °C 1006.7 hPa SW 4.5 km/h 11.1 km/h 98 % 0 mm
03:44 13.9 °C 13.6 °C 1006.7 hPa SSW 9.2 km/h 12.9 km/h 98 % 0 mm
03:49 13.8 °C 13.5 °C 1007 hPa SW 6.4 km/h 22.2 km/h 98 % 0 mm
03:54 13.7 °C 13.4 °C 1007 hPa West 14.8 km/h 18.5 km/h 98 % 0 mm
03:59 13.6 °C 13.2 °C 1007 hPa WSW 8.7 km/h 11.3 km/h 98 % 0 mm
04:04 13.5 °C 13.1 °C 1007 hPa WNW 7.6 km/h 18.5 km/h 97 % 0 mm
04:09 13.4 °C 12.9 °C 1007 hPa WSW 10.5 km/h 18.5 km/h 97 % 0 mm
04:14 13.3 °C 12.7 °C 1007.3 hPa WSW 3.7 km/h 11.1 km/h 96 % 0 mm
04:19 13.3 °C 12.7 °C 1007.7 hPa West 8.2 km/h 17.7 km/h 96 % 0 mm
04:24 13.2 °C 12.4 °C 1007.7 hPa West 0.5 km/h 13 km/h 95 % 0 mm
04:29 13.2 °C 12.4 °C 1008 hPa West 7.7 km/h 13 km/h 95 % 0 mm
04:34 13.2 °C 12.2 °C 1008 hPa West 1 km/h 7.4 km/h 94 % 0 mm
04:39 13.2 °C 12.2 °C 1008 hPa West 6.1 km/h 11.1 km/h 94 % 0 mm
04:44 13.1 °C 12 °C 1008 hPa WNW 5.5 km/h 9.3 km/h 93 % 0 mm
04:49 13.1 °C 11.9 °C 1008.7 hPa West 11.4 km/h 17.7 km/h 93 % 0 mm
04:55 13 °C 11.7 °C 1008.7 hPa NW 10.9 km/h 16.7 km/h 92 % 0 mm
05:00 12.8 °C 11.4 °C 1009 hPa WNW 4.2 km/h 14.5 km/h 91 % 0 mm
05:05 12.6 °C 10.8 °C 1009.4 hPa NW 12.1 km/h 18.5 km/h 89 % 0 mm
05:10 12.2 °C 10.1 °C 1009.7 hPa NW 6.3 km/h 18.5 km/h 87 % 0 mm
05:15 11.6 °C 9.3 °C 1009.7 hPa WNW 8.7 km/h 14.8 km/h 86 % 0 mm
05:20 11.2 °C 8.7 °C 1009.7 hPa WNW 8.5 km/h 16.1 km/h 85 % 0 mm
05:25 10.6 °C 7.8 °C 1009.7 hPa NW 8.7 km/h 18.5 km/h 83 % 0 mm
05:30 10.2 °C 7.8 °C 1009.7 hPa NW 5.3 km/h 12.9 km/h 85 % 0 mm
05:35 10 °C 7.8 °C 1010 hPa West 8.4 km/h 13 km/h 86 % 0 mm
05:40 9.8 °C 7.8 °C 1010 hPa West 6 km/h 9.3 km/h 87 % 0 mm
05:45 9.8 °C 7.9 °C 1010 hPa West 8.5 km/h 18.5 km/h 88 % 0 mm
05:50 9.6 °C 7.7 °C 1010 hPa NW 11.3 km/h 14.8 km/h 88 % 0 mm
05:55 9.5 °C 7.4 °C 1010.4 hPa West 3.5 km/h 11.3 km/h 87 % 0 mm
06:00 9.4 °C 7.3 °C 1010.4 hPa West 6.6 km/h 11.1 km/h 87 % 0 mm
06:05 9.3 °C 7.1 °C 1010.7 hPa WNW 8.2 km/h 13 km/h 86 % 0 mm
06:10 9.2 °C 7 °C 1010.7 hPa NNW 8.7 km/h 19.3 km/h 86 % 0 mm
06:15 9.1 °C 6.7 °C 1011.1 hPa WNW 8 km/h 12.9 km/h 85 % 0 mm
06:20 8.8 °C 6.3 °C 1011.1 hPa NW 7.6 km/h 13 km/h 84 % 0 mm
06:21 8.9 °C 6.3 °C 1011.1 hPa WNW 8 km/h 20.9 km/h 84 % 0 mm
06:26 8.6 °C 6.2 °C 1011.4 hPa NW 8 km/h 14.5 km/h 85 % 0 mm
06:31 8.3 °C 5.9 °C 1011.4 hPa NW 4.8 km/h 11.3 km/h 85 % 0 mm
06:36 8 °C 5.8 °C 1011.7 hPa NW 6.9 km/h 18.5 km/h 86 % 0 mm
06:41 7.8 °C 5.8 °C 1011.7 hPa NNW 9.7 km/h 19.3 km/h 87 % 0 mm
06:46 7.6 °C 5.7 °C 1011.7 hPa NNW 8 km/h 19.3 km/h 88 % 0 mm
06:51 7.4 °C 5.6 °C 1012.1 hPa NNW 4.8 km/h 16.1 km/h 88 % 0 mm
06:56 7.2 °C 5.4 °C 1012.8 hPa NNW 3.2 km/h 12.9 km/h 88 % 0 mm
07:01 7 °C 5.2 °C 1012.8 hPa NW 6.3 km/h 14.8 km/h 88 % 0 mm
07:06 6.7 °C 4.9 °C 1012.8 hPa NW 6.4 km/h 8 km/h 88 % 0 mm
07:12 6.4 °C 4.6 °C 1012.8 hPa NNW 6.8 km/h 8 km/h 88 % 0 mm
07:17 6.2 °C 4.3 °C 1013.1 hPa NNW 4.3 km/h 14.8 km/h 88 % 0 mm
07:22 5.9 °C 4.1 °C 1013.1 hPa North 10 km/h 18.5 km/h 88 % 0 mm
07:27 5.8 °C 3.9 °C 1013.1 hPa NNE 6.4 km/h 11.1 km/h 88 % 0 mm
07:32 5.6 °C 3.8 °C 1013.4 hPa NNE 2.7 km/h 7.4 km/h 88 % 0 mm
07:37 5.5 °C 3.8 °C 1013.4 hPa NNE 3.1 km/h 7.4 km/h 89 % 0 mm
07:42 5.4 °C 3.7 °C 1014.1 hPa NNW 7.4 km/h 11.1 km/h 89 % 0 mm
07:47 5.2 °C 3.4 °C 1013.8 hPa North 4 km/h 11.1 km/h 88 % 0 mm
07:52 5.1 °C 3.3 °C 1014.1 hPa North 6.3 km/h 12.9 km/h 88 % 0 mm
07:57 5 °C 3.2 °C 1014.1 hPa NNE 9.2 km/h 11.1 km/h 88 % 0 mm
08:02 4.9 °C 3.1 °C 1014.1 hPa NNW 8.4 km/h 13 km/h 88 % 0 mm
08:07 4.8 °C 3 °C 1014.4 hPa North 10.9 km/h 18.5 km/h 88 % 0 mm
08:12 4.7 °C 2.9 °C 1014.8 hPa NNW 8 km/h 14.5 km/h 88 % 0 mm
08:17 4.7 °C 2.8 °C 1014.8 hPa NNW 7.9 km/h 9.3 km/h 88 % 0 mm
08:22 4.7 °C 2.8 °C 1014.8 hPa North 0.8 km/h 11.1 km/h 88 % 0 mm
08:27 4.7 °C 2.8 °C 1014.8 hPa NW 6.1 km/h 9.3 km/h 88 % 0 mm
08:32 4.6 °C 2.8 °C 1015.1 hPa NNW 6 km/h 9.7 km/h 88 % 0 mm
08:37 4.6 °C 2.8 °C 1015.5 hPa WNW 10.9 km/h 16.7 km/h 88 % 0 mm
08:43 4.6 °C 2.6 °C 1015.5 hPa North 7.2 km/h 14.8 km/h 87 % 0 mm
08:48 4.6 °C 2.6 °C 1015.5 hPa NNW 7.9 km/h 14.5 km/h 87 % 0 mm
08:53 4.7 °C 2.7 °C 1015.8 hPa NW 5 km/h 13 km/h 87 % 0 mm
08:58 4.7 °C 2.7 °C 1015.5 hPa NNW 5 km/h 8 km/h 87 % 0 mm
09:03 4.8 °C 2.8 °C 1016.1 hPa NNW 8.9 km/h 16.7 km/h 87 % 0 mm
09:08 4.8 °C 2.6 °C 1015.8 hPa NW 7.1 km/h 13 km/h 86 % 0 mm
09:13 4.7 °C 2.6 °C 1015.8 hPa North 9.3 km/h 14.8 km/h 86 % 0 mm
09:18 4.7 °C 2.5 °C 1016.1 hPa NNW 6.4 km/h 7.4 km/h 86 % 0 mm
09:23 4.7 °C 2.5 °C 1016.1 hPa NNW 5.8 km/h 8 km/h 86 % 0 mm
09:28 4.7 °C 2.5 °C 1016.1 hPa NW 5.5 km/h 11.3 km/h 86 % 0 mm
09:33 4.6 °C 2.4 °C 1016.1 hPa NNW 8.2 km/h 14.8 km/h 86 % 0 mm
09:38 4.6 °C 2.4 °C 1016.5 hPa NNW 5 km/h 13 km/h 86 % 0 mm
09:43 4.5 °C 2.3 °C 1016.5 hPa NNW 9.8 km/h 13 km/h 86 % 0 mm
09:48 4.4 °C 2.3 °C 1016.5 hPa NNW 2.6 km/h 5.6 km/h 86 % 0 mm
09:53 4.4 °C 2.3 °C 1016.5 hPa North 8.4 km/h 9.7 km/h 86 % 0 mm
09:58 4.3 °C 2.2 °C 1016.8 hPa NW 2.7 km/h 5.6 km/h 86 % 0 mm
10:03 4.3 °C 2.2 °C 1017.2 hPa WNW 6.1 km/h 11.1 km/h 86 % 0 mm
10:08 4.2 °C 2.1 °C 1017.2 hPa NNE 1.3 km/h 5.6 km/h 86 % 0 mm
10:13 4.2 °C 2.2 °C 1017.5 hPa WNW 2.1 km/h 9.3 km/h 87 % 0 mm
10:19 4.2 °C 2.2 °C 1017.8 hPa North 5.8 km/h 7.4 km/h 87 % 0 mm
10:24 4.2 °C 2.2 °C 1018.2 hPa NW 2.6 km/h 8 km/h 87 % 0 mm
10:29 4.2 °C 2.1 °C 1017.8 hPa NNW 7.4 km/h 9.3 km/h 86 % 0 mm
10:34 4.2 °C 2.1 °C 1018.2 hPa Calm   5.6 km/h 86 % 0 mm
10:39 4.2 °C 2.1 °C 1018.2 hPa NW 6.4 km/h 11.3 km/h 86 % 0 mm
10:44 4.1 °C 1.8 °C 1017.8 hPa NNE 8 km/h 12.9 km/h 85 % 0 mm
10:49 4 °C 1.7 °C 1018.2 hPa North 4.3 km/h 9.3 km/h 85 % 0 mm
10:54 3.9 °C 1.7 °C 1018.2 hPa NNE 8.7 km/h 13 km/h 85 % 0 mm
10:59 3.8 °C 1.4 °C 1017.8 hPa North 5.3 km/h 11.1 km/h 84 % 0 mm
11:04 3.8 °C 1.4 °C 1018.2 hPa NNW 8.4 km/h 16.7 km/h 84 % 0 mm
11:09 3.8 °C 1.2 °C 1018.2 hPa NNW 9.3 km/h 16.7 km/h 83 % 0 mm
11:14 3.9 °C 1.4 °C 1018.2 hPa NNE 6.6 km/h 13 km/h 84 % 0 mm
11:19 3.9 °C 1.5 °C 1018.2 hPa NNE 7.1 km/h 9.3 km/h 84 % 0 mm
11:24 3.9 °C 1.5 °C 1018.5 hPa NNW 5 km/h 8 km/h 84 % 0 mm
11:29 3.9 °C 1.5 °C 1018.5 hPa NNE 3.4 km/h 7.4 km/h 84 % 0 mm
11:34 4 °C 1.4 °C 1018.5 hPa North 8.2 km/h 14.8 km/h 83 % 0 mm
11:39 4 °C 1.2 °C 1018.8 hPa NNE 4 km/h 11.1 km/h 82 % 0 mm
11:44 4 °C 1.4 °C 1018.8 hPa NNW 4.3 km/h 7.4 km/h 83 % 0 mm
11:50 4 °C 1.4 °C 1018.8 hPa North 2.4 km/h 7.4 km/h 83 % 0 mm
11:55 4 °C 1.2 °C 1018.8 hPa NNE 5.1 km/h 9.7 km/h 82 % 0 mm
12:00 3.9 °C 1 °C 1018.5 hPa NW 3.1 km/h 14.8 km/h 81 % 0 mm
12:05 3.9 °C 1 °C 1018.8 hPa North 6.1 km/h 9.3 km/h 81 % 0 mm
12:10 3.9 °C 0.8 °C 1018.8 hPa North 2.4 km/h 7.4 km/h 80 % 0 mm
12:15 4 °C 1.1 °C 1018.8 hPa North 5.3 km/h 9.3 km/h 81 % 0 mm
12:20 4 °C 1.1 °C 1019.2 hPa North 3.9 km/h 7.4 km/h 81 % 0 mm
12:25 4.1 °C 1.1 °C 1019.2 hPa NNW 3.2 km/h 7.4 km/h 81 % 0 mm
12:30 4.1 °C 1.1 °C 1018.8 hPa NW 8.4 km/h 13 km/h 81 % 0 mm
12:35 4.1 °C 0.7 °C 1018.8 hPa NNW 4.8 km/h 7.4 km/h 79 % 0 mm
12:40 4 °C 0.3 °C 1019.2 hPa North 9 km/h 13 km/h 77 % 0 mm
12:45 3.9 °C 0.1 °C 1019.2 hPa North 8.2 km/h 11.3 km/h 76 % 0 mm
12:50 3.9 °C 0.1 °C 1019.5 hPa North 6.4 km/h 11.1 km/h 76 % 0 mm
12:55 3.9 °C 0.1 °C 1019.5 hPa North 6.1 km/h 8 km/h 76 % 0 mm
13:00 3.9 °C 0.2 °C 1019.5 hPa North 3.9 km/h 6.4 km/h 77 % 0 mm
13:06 3.9 °C 0.3 °C 1019.5 hPa North 4.8 km/h 8 km/h 77 % 0 mm
13:11 4.1 °C 0.6 °C 1019.5 hPa North 1.6 km/h 9.7 km/h 78 % 0 mm
13:16 4.1 °C 0.8 °C 1019.5 hPa NNW 3.2 km/h 8 km/h 79 % 0 mm
13:21 4.2 °C 0.5 °C 1019.9 hPa NNW 1.6 km/h 11.3 km/h 77 % 0 mm
13:26 4.2 °C 0.5 °C 1019.5 hPa NNW 3.2 km/h 9.7 km/h 77 % 0 mm
13:31 4.2 °C 0.4 °C 1019.5 hPa NNW 3.2 km/h 8 km/h 76 % 0 mm
13:36 4.2 °C 0.4 °C 1019.5 hPa NNW 2.3 km/h 8 km/h 76 % 0 mm
13:41 4.2 °C 0 °C 1019.5 hPa North 3.2 km/h 11.3 km/h 74 % 0 mm
13:46 4.3 °C 0.2 °C 1019.5 hPa NW 4.5 km/h 11.1 km/h 75 % 0 mm
13:50 4.3 °C 0.2 °C 1019.9 hPa NNW 3.5 km/h 6.4 km/h 75 % 0 mm
13:56 4.3 °C 0.3 °C 1019.9 hPa NNW 8 km/h 11.3 km/h 75 % 0 mm
14:01 4.3 °C 0.1 °C 1019.9 hPa NW 7.9 km/h 13 km/h 74 % 0 mm
14:06 4.4 °C 0.4 °C 1019.9 hPa NNW 4.2 km/h 9.3 km/h 75 % 0 mm
14:11 4.6 °C 0.3 °C 1019.9 hPa NNW 6.6 km/h 9.7 km/h 74 % 0 mm
14:16 4.7 °C 0.2 °C 1020.2 hPa NNW 6.1 km/h 13 km/h 73 % 0 mm
14:21 4.7 °C 0.2 °C 1020.2 hPa WNW 4.7 km/h 11.3 km/h 73 % 0 mm
14:26 4.8 °C 0.6 °C 1020.2 hPa North 5 km/h 11.1 km/h 74 % 0 mm
14:31 4.8 °C 0.2 °C 1020.5 hPa NW 4.2 km/h 9.3 km/h 72 % 0 mm
14:36 4.9 °C -0.3 °C 1020.5 hPa NW 6.4 km/h 11.1 km/h 69 % 0 mm
14:41 4.9 °C -0.3 °C 1020.5 hPa NW 9.8 km/h 16.7 km/h 69 % 0 mm
14:46 4.9 °C -0.3 °C 1020.9 hPa NNW 7.6 km/h 11.3 km/h 69 % 0 mm
14:51 4.9 °C -0.3 °C 1021.2 hPa North 3.7 km/h 7.4 km/h 69 % 0 mm
14:56 4.8 °C -0.4 °C 1021.2 hPa NNW 5.5 km/h 9.3 km/h 69 % 0 mm
15:01 4.7 °C -0.5 °C 1021.6 hPa NNW 6.4 km/h 14.8 km/h 69 % 0 mm
15:06 4.7 °C -0.6 °C 1021.6 hPa NW 3.1 km/h 13 km/h 69 % 0 mm
15:11 4.6 °C -0.7 °C 1021.6 hPa NNW 3.7 km/h 7.4 km/h 69 % 0 mm
15:16 4.5 °C -0.7 °C 1021.6 hPa North 5.5 km/h 11.1 km/h 69 % 0 mm
15:22 4.4 °C -0.6 °C 1021.6 hPa North 3.5 km/h 6.4 km/h 70 % 0 mm
15:27 4.4 °C -0.8 °C 1021.9 hPa NW 3.4 km/h 5.6 km/h 69 % 0 mm
15:32 4.4 °C -1 °C 1021.6 hPa NNE 7.9 km/h 11.1 km/h 68 % 0 mm
15:37 4.4 °C -0.8 °C 1021.6 hPa NNW 2.9 km/h 5.6 km/h 69 % 0 mm
15:42 4.4 °C -0.3 °C 1021.6 hPa NNW 2.3 km/h 5.6 km/h 71 % 0 mm
15:47 4.4 °C -0.2 °C 1021.9 hPa NNE 0.3 km/h 3.7 km/h 72 % 0 mm
15:52 4.3 °C -0.4 °C 1021.9 hPa NNW 2.7 km/h 7.4 km/h 71 % 0 mm
15:57 4.3 °C -0.4 °C 1022.2 hPa North 2.3 km/h 5.6 km/h 71 % 0 mm
16:02 4.3 °C -0.5 °C 1022.2 hPa NW 2.1 km/h 7.4 km/h 71 % 0 mm
16:07 4.3 °C -0.3 °C 1022.2 hPa NNW 1.8 km/h 7.4 km/h 72 % 0 mm
16:12 4.2 °C -0.6 °C 1022.6 hPa NNE 1.6 km/h 13 km/h 71 % 0 mm
16:17 4.2 °C -0.4 °C 1022.6 hPa North 0.2 km/h 3.7 km/h 72 % 0 mm
16:22 4.2 °C -0.1 °C 1022.2 hPa North 4 km/h 5.6 km/h 74 % 0 mm
16:27 4.2 °C -0.6 °C 1022.6 hPa NW 4.3 km/h 13 km/h 71 % 0 mm
16:33 4.2 °C -0.8 °C 1022.6 hPa North 6.8 km/h 13 km/h 70 % 0 mm
16:38 4.2 °C -0.8 °C 1022.6 hPa NNW 3.7 km/h 5.6 km/h 70 % 0 mm
16:43 4.2 °C -0.8 °C 1022.6 hPa NNW 1 km/h 7.4 km/h 70 % 0 mm
16:48 4.1 °C -0.9 °C 1022.6 hPa NNW 2.1 km/h 5.6 km/h 70 % 0 mm
16:53 4.1 °C -0.9 °C 1022.9 hPa Calm     70 % 0 mm
16:58 4.1 °C -0.9 °C 1023.2 hPa NNW 1.8 km/h 3.7 km/h 70 % 0 mm
17:03 4 °C -0.8 °C 1023.2 hPa NNW 0.5 km/h 3.7 km/h 71 % 0 mm
17:08 3.9 °C -0.8 °C 1023.6 hPa NNW 0.2 km/h 1.9 km/h 71 % 0 mm
17:13 3.9 °C -0.9 °C 1023.6 hPa Calm     71 % 0 mm
17:18 3.8 °C -1.2 °C 1023.9 hPa NNW 0.5 km/h 1.9 km/h 70 % 0 mm
17:23 3.7 °C -1.2 °C 1023.9 hPa Calm     70 % 0 mm
17:28 3.7 °C -1.1 °C 1023.9 hPa Calm     71 % 0 mm
17:33 3.6 °C -1.2 °C 1023.9 hPa Calm     71 % 0 mm
17:38 3.5 °C -1.1 °C 1024.3 hPa NNW 0.2 km/h 1.9 km/h 72 % 0 mm
17:43 3.4 °C -1.2 °C 1024.3 hPa Calm     72 % 0 mm
17:49 3.3 °C -1.1 °C 1024.3 hPa Calm     73 % 0 mm
17:54 3.2 °C -1.2 °C 1024.3 hPa Calm     73 % 0 mm
17:59 3 °C -1.2 °C 1024.6 hPa Calm     74 % 0 mm
18:04 2.9 °C -1.3 °C 1024.3 hPa Calm     74 % 0 mm
18:09 2.8 °C -1.2 °C 1024.6 hPa Calm     75 % 0 mm
18:14 2.7 °C -1.3 °C 1024.6 hPa Calm     75 % 0 mm
18:19 2.6 °C -1.3 °C 1024.6 hPa NNW 0.3 km/h 3.7 km/h 76 % 0 mm
18:24 2.5 °C -1.3 °C 1024.6 hPa Calm   1.9 km/h 76 % 0 mm
18:29 2.4 °C -1.4 °C 1024.9 hPa NNW 1.3 km/h 3.7 km/h 76 % 0 mm
18:34 2.3 °C -1.7 °C 1024.9 hPa NNW 1 km/h 3.7 km/h 75 % 0 mm
18:39 2.3 °C -1.7 °C 1024.9 hPa NNW 0.5 km/h 5.6 km/h 75 % 0 mm
18:44 2.3 °C -1.7 °C 1025.3 hPa NNW 1.8 km/h 3.2 km/h 75 % 0 mm
18:49 2.3 °C -1.7 °C 1025.3 hPa NNW 0.2 km/h 1.9 km/h 75 % 0 mm
18:54 2.3 °C -1.7 °C 1025.3 hPa Calm   3.7 km/h 75 % 0 mm
18:59 2.3 °C -1.7 °C 1025.3 hPa NNW 0.2 km/h 1.6 km/h 75 % 0 mm
19:04 2.3 °C -1.7 °C 1025.3 hPa Calm     75 % 0 mm
19:09 2.2 °C -1.6 °C 1025.6 hPa Calm     76 % 0 mm
19:15 2.2 °C -1.6 °C 1025.6 hPa Calm     76 % 0 mm
19:20 2.2 °C -1.6 °C 1025.6 hPa Calm     76 % 0 mm
19:25 2.1 °C -1.6 °C 1025.6 hPa Calm     77 % 0 mm
19:30 2 °C -1.4 °C 1025.6 hPa Calm     78 % 0 mm
19:35 1.9 °C -1.5 °C 1026 hPa NNW 2.7 km/h 5.6 km/h 78 % 0 mm
19:40 1.8 °C -1.6 °C 1026 hPa NNW 1.6 km/h 3.7 km/h 78 % 0 mm
19:45 1.8 °C -1.5 °C 1026 hPa NNW 0.2 km/h 1.9 km/h 79 % 0 mm
19:50 1.6 °C -1.4 °C 1026 hPa NNW 2.7 km/h 6.4 km/h 80 % 0 mm
19:55 1.6 °C -1.7 °C 1026.3 hPa North 1.8 km/h 8 km/h 79 % 0 mm
20:00 1.6 °C -1.7 °C 1026.6 hPa WNW 0.2 km/h 1.9 km/h 79 % 0 mm
20:05 1.6 °C -1.7 °C 1026.6 hPa North 5.6 km/h 9.7 km/h 79 % 0 mm
20:10 1.6 °C -1.8 °C 1026.6 hPa North 5.3 km/h 7.4 km/h 78 % 0 mm
20:15 1.6 °C -1.8 °C 1027 hPa NW 4.8 km/h 7.4 km/h 78 % 0 mm
20:20 1.7 °C -1.9 °C 1027 hPa North 8.5 km/h 9.3 km/h 77 % 0 mm
20:25 1.7 °C -1.7 °C 1027 hPa NNE 4.5 km/h 14.8 km/h 78 % 0 mm
20:30 1.7 °C -1.7 °C 1027 hPa North 3.7 km/h 5.6 km/h 78 % 0 mm
20:35 1.7 °C -1.7 °C 1027.3 hPa NNE 3.5 km/h 5.6 km/h 78 % 0 mm
20:40 1.7 °C -1.9 °C 1027.3 hPa North 5.8 km/h 9.3 km/h 77 % 0 mm
20:45 1.7 °C -2.1 °C 1027.7 hPa NNW 5.5 km/h 11.1 km/h 76 % 0 mm
20:51 1.6 °C -2.2 °C 1027.7 hPa North 4.8 km/h 11.3 km/h 76 % 0 mm
20:56 1.6 °C -2.2 °C 1027.7 hPa North 4.8 km/h 11.3 km/h 76 % 0 mm
21:01 1.5 °C -2.3 °C 1027.7 hPa North 1.1 km/h 5.6 km/h 76 % 0 mm
21:06 1.4 °C -2.3 °C 1027.7 hPa North 3.2 km/h 9.7 km/h 76 % 0 mm
21:11 1.4 °C -2.6 °C 1028 hPa NNE 4.8 km/h 9.7 km/h 75 % 0 mm
21:16 1.3 °C -2.8 °C 1028 hPa North 4.8 km/h 9.7 km/h 74 % 0 mm
21:21 1.3 °C -2.8 °C 1028 hPa North 3.2 km/h 9.7 km/h 74 % 0 mm
21:26 1.3 °C -2.7 °C 1028 hPa North 7.6 km/h 9.7 km/h 75 % 0 mm
21:31 1.2 °C -2.9 °C 1028.3 hPa North 1.6 km/h 8 km/h 74 % 0 mm
21:36 1.2 °C -2.9 °C 1028 hPa NNW 3.2 km/h 8 km/h 74 % 0 mm
21:41 1.2 °C -2.8 °C 1028.3 hPa North 3.2 km/h 8 km/h 75 % 0 mm
21:46 1.1 °C -2.8 °C 1028.3 hPa NNW 1.6 km/h 8 km/h 75 % 0 mm
21:51 1.1 °C -2.9 °C 1028.3 hPa North 3.2 km/h 11.3 km/h 75 % 0 mm
21:56 1 °C -2.9 °C 1028.3 hPa Calm   6.4 km/h 75 % 0 mm
22:01 0.9 °C -3 °C 1028.7 hPa NNE 1.1 km/h 8 km/h 75 % 0 mm
22:06 0.8 °C -3.1 °C 1028.7 hPa Calm   9.7 km/h 75 % 0 mm
22:11 0.8 °C -3.2 °C 1028.7 hPa North 1.6 km/h 8 km/h 75 % 0 mm
22:16 0.7 °C -3.2 °C 1028.7 hPa North 3.2 km/h 11.3 km/h 75 % 0 mm
22:21 0.7 °C -3.4 °C 1028.7 hPa North 8 km/h 14.5 km/h 74 % 0 mm
22:26 0.7 °C -3.6 °C 1029 hPa North 9.7 km/h 19.3 km/h 73 % 0 mm
22:31 0.6 °C -3.8 °C 1029 hPa North 2.4 km/h 13 km/h 72 % 0 mm
22:36 0.6 °C -3.9 °C 1029.3 hPa North 8.4 km/h 8.4 km/h 72 % 0 mm
22:41 0.6 °C -3.9 °C 1029.3 hPa NE 5.8 km/h 9.3 km/h 72 % 0 mm
22:47 0.6 °C -3.9 °C 1029.3 hPa NNE 3.5 km/h 6.4 km/h 72 % 0 mm
22:52 0.5 °C -3.8 °C 1029.3 hPa North 2.1 km/h 7.4 km/h 73 % 0 mm
22:57 0.4 °C -3.8 °C 1029.3 hPa NNE 2.4 km/h 5.6 km/h 73 % 0 mm
23:02 0.4 °C -3.9 °C 1029.3 hPa North 7.1 km/h 13 km/h 73 % 0 mm
23:07 0.3 °C -4.1 °C 1029.3 hPa North 6 km/h 14.8 km/h 72 % 0 mm
23:12 0.3 °C -4.2 °C 1029.3 hPa North 5.3 km/h 11.1 km/h 72 % 0 mm
23:17 0.2 °C -4.2 °C 1029.7 hPa North 3.2 km/h 5.6 km/h 72 % 0 mm
23:22 0.2 °C -4.3 °C 1029.7 hPa North 1.8 km/h 3.7 km/h 72 % 0 mm
23:27 0.2 °C -4.3 °C 1029.7 hPa North 3.4 km/h 5.6 km/h 72 % 0 mm
23:32 0.1 °C -4.4 °C 1030 hPa NE 5.8 km/h 11.1 km/h 72 % 0 mm
23:37 0 °C -4.4 °C 1030 hPa NNW 6.8 km/h 12.9 km/h 72 % 0 mm
23:42 0 °C -4.6 °C 1030 hPa North 7.4 km/h 13 km/h 71 % 0 mm
23:47 -0.1 °C -4.7 °C 1030 hPa NW 3.5 km/h 9.3 km/h 71 % 0 mm
23:52 -0.1 °C -4.7 °C 1030 hPa North 0.6 km/h 5.6 km/h 71 % 0 mm
23:57 -0.1 °C -4.9 °C 1030.4 hPa North 4.2 km/h 14.8 km/h 70 % 0 mm
Crab Meadow Weather
Compliments of Weather Underground - 3 mb

Script developed by  Jim McMurry - jmcmurry@mwt.net Adapted for the template by  Wim van der Kuil - Leuven-Template.eu

Recycling: In 2006, a record 53.4 percent of the paper consumed in the U.S. was recovered for recycling. Americans recovered an extraordinary 53.5 million tons, averaging 360 pounds per person.